sensor_id;sensor_type;location;lat;lon;timestamp;P1;durP1;ratioP1;P2;durP2;ratioP2
66169;SDS011;66757;44.024;20.456;2023-02-13T00:00:25;271.02;;;147.60;;
66169;SDS011;66757;44.024;20.456;2023-02-13T00:02:51;257.50;;;144.82;;
66169;SDS011;66757;44.024;20.456;2023-02-13T00:05:16;266.80;;;146.35;;
66169;SDS011;66757;44.024;20.456;2023-02-13T00:07:42;319.90;;;176.80;;
66169;SDS011;66757;44.024;20.456;2023-02-13T00:10:07;335.65;;;186.43;;
66169;SDS011;66757;44.024;20.456;2023-02-13T00:12:33;326.30;;;178.98;;
66169;SDS011;66757;44.024;20.456;2023-02-13T00:14:58;278.00;;;152.93;;
66169;SDS011;66757;44.024;20.456;2023-02-13T00:17:24;273.80;;;150.82;;
66169;SDS011;66757;44.024;20.456;2023-02-13T00:19:50;257.30;;;139.52;;
66169;SDS011;66757;44.024;20.456;2023-02-13T00:22:15;261.95;;;140.25;;
66169;SDS011;66757;44.024;20.456;2023-02-13T00:24:41;235.05;;;130.55;;
66169;SDS011;66757;44.024;20.456;2023-02-13T00:27:06;241.82;;;131.75;;
66169;SDS011;66757;44.024;20.456;2023-02-13T00:29:32;256.38;;;138.10;;
66169;SDS011;66757;44.024;20.456;2023-02-13T00:31:57;268.33;;;142.00;;
66169;SDS011;66757;44.024;20.456;2023-02-13T00:34:22;291.00;;;164.20;;
66169;SDS011;66757;44.024;20.456;2023-02-13T00:36:48;365.45;;;205.63;;
66169;SDS011;66757;44.024;20.456;2023-02-13T00:39:13;383.98;;;219.77;;
66169;SDS011;66757;44.024;20.456;2023-02-13T00:41:38;456.55;;;263.30;;
66169;SDS011;66757;44.024;20.456;2023-02-13T00:44:03;431.90;;;247.07;;
66169;SDS011;66757;44.024;20.456;2023-02-13T00:46:29;426.23;;;245.00;;
66169;SDS011;66757;44.024;20.456;2023-02-13T00:48:54;421.42;;;240.50;;
66169;SDS011;66757;44.024;20.456;2023-02-13T00:51:19;449.17;;;262.53;;
66169;SDS011;66757;44.024;20.456;2023-02-13T00:53:45;448.08;;;261.55;;
66169;SDS011;66757;44.024;20.456;2023-02-13T00:56:11;435.77;;;250.80;;
66169;SDS011;66757;44.024;20.456;2023-02-13T00:58:36;443.52;;;250.88;;
66169;SDS011;66757;44.024;20.456;2023-02-13T01:01:02;446.57;;;254.03;;
66169;SDS011;66757;44.024;20.456;2023-02-13T01:03:28;445.00;;;254.95;;
66169;SDS011;66757;44.024;20.456;2023-02-13T01:05:54;403.53;;;219.23;;
66169;SDS011;66757;44.024;20.456;2023-02-13T01:08:19;429.95;;;237.80;;
66169;SDS011;66757;44.024;20.456;2023-02-13T01:10:45;424.77;;;238.50;;
66169;SDS011;66757;44.024;20.456;2023-02-13T01:13:12;432.53;;;246.70;;
66169;SDS011;66757;44.024;20.456;2023-02-13T01:15:38;417.77;;;235.77;;
66169;SDS011;66757;44.024;20.456;2023-02-13T01:18:04;414.02;;;229.45;;
66169;SDS011;66757;44.024;20.456;2023-02-13T01:20:29;406.30;;;229.88;;
66169;SDS011;66757;44.024;20.456;2023-02-13T01:22:55;414.20;;;231.85;;
66169;SDS011;66757;44.024;20.456;2023-02-13T01:25:21;398.80;;;226.87;;
66169;SDS011;66757;44.024;20.456;2023-02-13T01:27:47;395.85;;;218.65;;
66169;SDS011;66757;44.024;20.456;2023-02-13T01:30:13;385.40;;;212.23;;
66169;SDS011;66757;44.024;20.456;2023-02-13T01:32:39;390.73;;;216.02;;
66169;SDS011;66757;44.024;20.456;2023-02-13T01:35:06;361.17;;;199.23;;
66169;SDS011;66757;44.024;20.456;2023-02-13T01:37:32;364.45;;;203.95;;
66169;SDS011;66757;44.024;20.456;2023-02-13T01:39:57;387.27;;;211.10;;
66169;SDS011;66757;44.024;20.456;2023-02-13T01:42:29;394.33;;;216.00;;
66169;SDS011;66757;44.024;20.456;2023-02-13T01:44:56;382.98;;;213.02;;
66169;SDS011;66757;44.024;20.456;2023-02-13T01:47:38;361.10;;;202.68;;
66169;SDS011;66757;44.024;20.456;2023-02-13T01:50:16;354.50;;;190.03;;
66169;SDS011;66757;44.024;20.456;2023-02-13T01:52:44;391.52;;;186.38;;
66169;SDS011;66757;44.024;20.456;2023-02-13T01:55:11;344.35;;;152.48;;
66169;SDS011;66757;44.024;20.456;2023-02-13T01:57:39;300.05;;;158.43;;
66169;SDS011;66757;44.024;20.456;2023-02-13T02:00:07;292.05;;;148.70;;
66169;SDS011;66757;44.024;20.456;2023-02-13T02:02:33;276.17;;;134.30;;
66169;SDS011;66757;44.024;20.456;2023-02-13T02:05:01;282.95;;;134.82;;
66169;SDS011;66757;44.024;20.456;2023-02-13T02:07:28;232.43;;;118.85;;
66169;SDS011;66757;44.024;20.456;2023-02-13T02:09:55;227.07;;;112.67;;
66169;SDS011;66757;44.024;20.456;2023-02-13T02:14:49;295.67;;;132.70;;
66169;SDS011;66757;44.024;20.456;2023-02-13T02:17:15;318.23;;;145.27;;
66169;SDS011;66757;44.024;20.456;2023-02-13T02:20:00;436.73;;;200.23;;
66169;SDS011;66757;44.024;20.456;2023-02-13T02:25:17;327.10;;;140.57;;
66169;SDS011;66757;44.024;20.456;2023-02-13T02:32:59;332.80;;;139.85;;
66169;SDS011;66757;44.024;20.456;2023-02-13T02:40:33;287.58;;;135.88;;
66169;SDS011;66757;44.024;20.456;2023-02-13T02:48:21;336.63;;;151.80;;
66169;SDS011;66757;44.024;20.456;2023-02-13T02:51:11;304.50;;;148.60;;
66169;SDS011;66757;44.024;20.456;2023-02-13T02:53:43;269.23;;;135.40;;
66169;SDS011;66757;44.024;20.456;2023-02-13T02:56:30;310.97;;;146.00;;
66169;SDS011;66757;44.024;20.456;2023-02-13T02:59:13;314.93;;;143.83;;
66169;SDS011;66757;44.024;20.456;2023-02-13T03:01:59;327.93;;;145.63;;
66169;SDS011;66757;44.024;20.456;2023-02-13T03:04:48;254.27;;;125.75;;
66169;SDS011;66757;44.024;20.456;2023-02-13T03:07:33;246.83;;;128.93;;
66169;SDS011;66757;44.024;20.456;2023-02-13T03:10:22;339.17;;;150.73;;
66169;SDS011;66757;44.024;20.456;2023-02-13T03:13:13;322.07;;;139.70;;
66169;SDS011;66757;44.024;20.456;2023-02-13T03:15:46;300.03;;;142.77;;
66169;SDS011;66757;44.024;20.456;2023-02-13T03:18:32;340.63;;;146.02;;
66169;SDS011;66757;44.024;20.456;2023-02-13T03:24:27;334.03;;;153.33;;
66169;SDS011;66757;44.024;20.456;2023-02-13T03:26:58;360.63;;;165.53;;
66169;SDS011;66757;44.024;20.456;2023-02-13T03:29:31;353.97;;;167.40;;
66169;SDS011;66757;44.024;20.456;2023-02-13T03:32:24;331.13;;;159.03;;
66169;SDS011;66757;44.024;20.456;2023-02-13T03:34:53;371.67;;;162.00;;
66169;SDS011;66757;44.024;20.456;2023-02-13T03:37:40;386.03;;;171.33;;
66169;SDS011;66757;44.024;20.456;2023-02-13T03:40:22;358.73;;;168.63;;
66169;SDS011;66757;44.024;20.456;2023-02-13T03:43:02;383.87;;;171.20;;
66169;SDS011;66757;44.024;20.456;2023-02-13T03:45:29;306.40;;;143.03;;
66169;SDS011;66757;44.024;20.456;2023-02-13T03:48:15;398.33;;;173.87;;
66169;SDS011;66757;44.024;20.456;2023-02-13T03:51:00;318.67;;;150.85;;
66169;SDS011;66757;44.024;20.456;2023-02-13T03:53:27;291.47;;;146.50;;
66169;SDS011;66757;44.024;20.456;2023-02-13T03:55:54;309.00;;;152.20;;
66169;SDS011;66757;44.024;20.456;2023-02-13T03:58:40;268.63;;;133.40;;
66169;SDS011;66757;44.024;20.456;2023-02-13T04:01:26;272.50;;;135.90;;
66169;SDS011;66757;44.024;20.456;2023-02-13T04:03:57;282.50;;;137.00;;
66169;SDS011;66757;44.024;20.456;2023-02-13T04:06:31;260.43;;;131.70;;
66169;SDS011;66757;44.024;20.456;2023-02-13T04:08:58;250.57;;;125.37;;
66169;SDS011;66757;44.024;20.456;2023-02-13T04:11:27;279.70;;;133.07;;
66169;SDS011;66757;44.024;20.456;2023-02-13T04:13:58;278.30;;;133.90;;
66169;SDS011;66757;44.024;20.456;2023-02-13T04:16:34;281.13;;;137.67;;
66169;SDS011;66757;44.024;20.456;2023-02-13T04:19:01;331.53;;;163.20;;
66169;SDS011;66757;44.024;20.456;2023-02-13T04:21:31;330.17;;;159.77;;
66169;SDS011;66757;44.024;20.456;2023-02-13T04:23:56;260.40;;;129.43;;
66169;SDS011;66757;44.024;20.456;2023-02-13T04:26:22;230.90;;;119.23;;
66169;SDS011;66757;44.024;20.456;2023-02-13T04:28:47;241.67;;;117.93;;
66169;SDS011;66757;44.024;20.456;2023-02-13T04:31:13;227.07;;;114.40;;
66169;SDS011;66757;44.024;20.456;2023-02-13T04:33:38;237.13;;;111.77;;
66169;SDS011;66757;44.024;20.456;2023-02-13T04:36:04;246.13;;;108.77;;
66169;SDS011;66757;44.024;20.456;2023-02-13T04:38:29;212.67;;;98.27;;
66169;SDS011;66757;44.024;20.456;2023-02-13T04:40:55;202.27;;;95.57;;
66169;SDS011;66757;44.024;20.456;2023-02-13T04:43:20;177.23;;;86.83;;
66169;SDS011;66757;44.024;20.456;2023-02-13T04:45:50;188.63;;;90.90;;
66169;SDS011;66757;44.024;20.456;2023-02-13T04:48:16;201.20;;;94.03;;
66169;SDS011;66757;44.024;20.456;2023-02-13T04:50:42;214.23;;;94.43;;
66169;SDS011;66757;44.024;20.456;2023-02-13T04:53:07;186.87;;;90.97;;
66169;SDS011;66757;44.024;20.456;2023-02-13T04:55:33;192.93;;;94.90;;
66169;SDS011;66757;44.024;20.456;2023-02-13T04:57:58;204.30;;;91.73;;
66169;SDS011;66757;44.024;20.456;2023-02-13T05:00:25;199.80;;;93.17;;
66169;SDS011;66757;44.024;20.456;2023-02-13T05:02:50;191.30;;;93.50;;
66169;SDS011;66757;44.024;20.456;2023-02-13T05:05:16;189.80;;;92.27;;
66169;SDS011;66757;44.024;20.456;2023-02-13T05:07:41;181.00;;;89.70;;
66169;SDS011;66757;44.024;20.456;2023-02-13T05:13:00;202.07;;;96.57;;
66169;SDS011;66757;44.024;20.456;2023-02-13T05:15:26;234.70;;;116.67;;
66169;SDS011;66757;44.024;20.456;2023-02-13T05:17:51;241.43;;;116.82;;
66169;SDS011;66757;44.024;20.456;2023-02-13T05:20:16;226.00;;;113.50;;
66169;SDS011;66757;44.024;20.456;2023-02-13T05:22:45;217.77;;;109.00;;
66169;SDS011;66757;44.024;20.456;2023-02-13T05:25:30;222.23;;;113.87;;
66169;SDS011;66757;44.024;20.456;2023-02-13T05:27:55;268.23;;;137.83;;
66169;SDS011;66757;44.024;20.456;2023-02-13T05:30:20;290.47;;;151.63;;
66169;SDS011;66757;44.024;20.456;2023-02-13T05:32:46;253.53;;;128.50;;
66169;SDS011;66757;44.024;20.456;2023-02-13T05:35:11;268.75;;;130.25;;
66169;SDS011;66757;44.024;20.456;2023-02-13T05:37:36;264.33;;;127.87;;
66169;SDS011;66757;44.024;20.456;2023-02-13T05:40:02;281.07;;;132.00;;
66169;SDS011;66757;44.024;20.456;2023-02-13T05:42:27;285.13;;;133.50;;
66169;SDS011;66757;44.024;20.456;2023-02-13T05:44:54;252.20;;;129.27;;
66169;SDS011;66757;44.024;20.456;2023-02-13T05:47:19;228.57;;;118.47;;
66169;SDS011;66757;44.024;20.456;2023-02-13T05:49:44;233.07;;;114.15;;
66169;SDS011;66757;44.024;20.456;2023-02-13T05:52:10;240.37;;;119.43;;
66169;SDS011;66757;44.024;20.456;2023-02-13T05:54:35;251.37;;;123.60;;
66169;SDS011;66757;44.024;20.456;2023-02-13T05:57:02;243.87;;;123.67;;
66169;SDS011;66757;44.024;20.456;2023-02-13T05:59:28;215.67;;;113.07;;
66169;SDS011;66757;44.024;20.456;2023-02-13T06:01:53;233.33;;;122.03;;
66169;SDS011;66757;44.024;20.456;2023-02-13T06:04:18;242.63;;;130.20;;
66169;SDS011;66757;44.024;20.456;2023-02-13T06:06:45;250.67;;;127.73;;
66169;SDS011;66757;44.024;20.456;2023-02-13T06:09:10;260.20;;;137.60;;
66169;SDS011;66757;44.024;20.456;2023-02-13T06:11:35;261.13;;;132.23;;
66169;SDS011;66757;44.024;20.456;2023-02-13T06:14:01;283.65;;;147.13;;
66169;SDS011;66757;44.024;20.456;2023-02-13T06:16:27;259.97;;;138.03;;
66169;SDS011;66757;44.024;20.456;2023-02-13T06:18:55;282.67;;;152.90;;
66169;SDS011;66757;44.024;20.456;2023-02-13T06:21:20;236.10;;;129.37;;
66169;SDS011;66757;44.024;20.456;2023-02-13T06:23:45;241.67;;;130.77;;
66169;SDS011;66757;44.024;20.456;2023-02-13T06:26:11;236.23;;;129.10;;
66169;SDS011;66757;44.024;20.456;2023-02-13T06:28:36;228.93;;;125.50;;
66169;SDS011;66757;44.024;20.456;2023-02-13T06:31:01;209.43;;;118.33;;
66169;SDS011;66757;44.024;20.456;2023-02-13T06:33:28;202.35;;;112.40;;
66169;SDS011;66757;44.024;20.456;2023-02-13T06:35:53;207.83;;;115.57;;
66169;SDS011;66757;44.024;20.456;2023-02-13T06:38:19;217.47;;;121.00;;
66169;SDS011;66757;44.024;20.456;2023-02-13T06:40:45;195.73;;;112.00;;
66169;SDS011;66757;44.024;20.456;2023-02-13T06:43:10;217.20;;;120.55;;
66169;SDS011;66757;44.024;20.456;2023-02-13T06:45:36;253.47;;;135.23;;
66169;SDS011;66757;44.024;20.456;2023-02-13T06:48:01;235.68;;;128.35;;
66169;SDS011;66757;44.024;20.456;2023-02-13T06:50:27;224.37;;;123.43;;
66169;SDS011;66757;44.024;20.456;2023-02-13T06:52:52;245.02;;;136.38;;
66169;SDS011;66757;44.024;20.456;2023-02-13T06:55:18;272.95;;;145.63;;
66169;SDS011;66757;44.024;20.456;2023-02-13T06:57:45;221.77;;;125.67;;
66169;SDS011;66757;44.024;20.456;2023-02-13T07:00:10;235.00;;;126.60;;
66169;SDS011;66757;44.024;20.456;2023-02-13T07:02:37;233.63;;;127.87;;
66169;SDS011;66757;44.024;20.456;2023-02-13T07:05:03;221.23;;;120.47;;
66169;SDS011;66757;44.024;20.456;2023-02-13T07:07:32;211.73;;;115.97;;
66169;SDS011;66757;44.024;20.456;2023-02-13T07:09:57;216.40;;;114.40;;
66169;SDS011;66757;44.024;20.456;2023-02-13T07:12:23;209.20;;;113.20;;
66169;SDS011;66757;44.024;20.456;2023-02-13T07:14:48;210.97;;;111.50;;
66169;SDS011;66757;44.024;20.456;2023-02-13T07:17:13;211.80;;;114.68;;
66169;SDS011;66757;44.024;20.456;2023-02-13T07:19:39;214.30;;;118.97;;
66169;SDS011;66757;44.024;20.456;2023-02-13T07:22:04;214.80;;;116.38;;
66169;SDS011;66757;44.024;20.456;2023-02-13T07:24:29;269.80;;;154.82;;
66169;SDS011;66757;44.024;20.456;2023-02-13T07:26:55;315.45;;;178.70;;
66169;SDS011;66757;44.024;20.456;2023-02-13T07:29:20;311.92;;;180.93;;
66169;SDS011;66757;44.024;20.456;2023-02-13T07:31:45;316.47;;;183.07;;
66169;SDS011;66757;44.024;20.456;2023-02-13T07:34:11;288.80;;;169.90;;
66169;SDS011;66757;44.024;20.456;2023-02-13T07:36:36;290.27;;;167.50;;
66169;SDS011;66757;44.024;20.456;2023-02-13T07:39:01;280.67;;;162.73;;
66169;SDS011;66757;44.024;20.456;2023-02-13T07:41:27;261.17;;;149.38;;
66169;SDS011;66757;44.024;20.456;2023-02-13T07:43:53;256.13;;;142.57;;
66169;SDS011;66757;44.024;20.456;2023-02-13T07:46:18;253.30;;;147.18;;
66169;SDS011;66757;44.024;20.456;2023-02-13T07:48:43;249.40;;;147.52;;
66169;SDS011;66757;44.024;20.456;2023-02-13T07:51:09;251.82;;;146.70;;
66169;SDS011;66757;44.024;20.456;2023-02-13T07:53:34;261.77;;;147.52;;
66169;SDS011;66757;44.024;20.456;2023-02-13T07:56:03;266.45;;;150.55;;
66169;SDS011;66757;44.024;20.456;2023-02-13T07:58:28;251.88;;;145.63;;
66169;SDS011;66757;44.024;20.456;2023-02-13T08:00:54;214.38;;;122.70;;
66169;SDS011;66757;44.024;20.456;2023-02-13T08:03:19;179.40;;;102.97;;
66169;SDS011;66757;44.024;20.456;2023-02-13T08:05:45;174.88;;;100.80;;
66169;SDS011;66757;44.024;20.456;2023-02-13T08:08:11;207.40;;;119.93;;
66169;SDS011;66757;44.024;20.456;2023-02-13T08:10:36;205.82;;;119.03;;
66169;SDS011;66757;44.024;20.456;2023-02-13T08:13:20;217.95;;;124.82;;
66169;SDS011;66757;44.024;20.456;2023-02-13T08:15:45;207.18;;;124.07;;
66169;SDS011;66757;44.024;20.456;2023-02-13T08:18:11;215.07;;;123.55;;
66169;SDS011;66757;44.024;20.456;2023-02-13T08:20:38;203.35;;;120.47;;
66169;SDS011;66757;44.024;20.456;2023-02-13T08:23:04;246.00;;;145.50;;
66169;SDS011;66757;44.024;20.456;2023-02-13T08:25:30;219.73;;;134.27;;
66169;SDS011;66757;44.024;20.456;2023-02-13T08:27:56;230.75;;;140.05;;
66169;SDS011;66757;44.024;20.456;2023-02-13T08:30:22;221.30;;;131.52;;
66169;SDS011;66757;44.024;20.456;2023-02-13T08:32:48;228.50;;;134.85;;
66169;SDS011;66757;44.024;20.456;2023-02-13T08:35:13;221.35;;;133.73;;
66169;SDS011;66757;44.024;20.456;2023-02-13T08:37:38;223.52;;;135.75;;
66169;SDS011;66757;44.024;20.456;2023-02-13T08:40:04;219.48;;;136.73;;
66169;SDS011;66757;44.024;20.456;2023-02-13T08:42:29;226.25;;;132.23;;
66169;SDS011;66757;44.024;20.456;2023-02-13T08:44:54;223.55;;;132.45;;
66169;SDS011;66757;44.024;20.456;2023-02-13T08:47:20;220.65;;;133.38;;
66169;SDS011;66757;44.024;20.456;2023-02-13T08:49:45;218.10;;;130.20;;
66169;SDS011;66757;44.024;20.456;2023-02-13T08:52:11;221.23;;;130.02;;
66169;SDS011;66757;44.024;20.456;2023-02-13T08:54:37;201.73;;;123.22;;
66169;SDS011;66757;44.024;20.456;2023-02-13T08:57:02;181.32;;;115.15;;
66169;SDS011;66757;44.024;20.456;2023-02-13T08:59:27;189.98;;;114.72;;
66169;SDS011;66757;44.024;20.456;2023-02-13T09:01:53;151.20;;;90.80;;
66169;SDS011;66757;44.024;20.456;2023-02-13T09:04:18;133.00;;;80.15;;
66169;SDS011;66757;44.024;20.456;2023-02-13T09:06:43;78.80;;;48.95;;
66169;SDS011;66757;44.024;20.456;2023-02-13T09:09:09;67.90;;;41.72;;
66169;SDS011;66757;44.024;20.456;2023-02-13T09:11:34;61.90;;;36.97;;
66169;SDS011;66757;44.024;20.456;2023-02-13T09:14:01;52.22;;;30.13;;
66169;SDS011;66757;44.024;20.456;2023-02-13T09:16:26;52.40;;;30.55;;
66169;SDS011;66757;44.024;20.456;2023-02-13T09:18:52;40.78;;;23.95;;
66169;SDS011;66757;44.024;20.456;2023-02-13T09:21:18;39.45;;;24.13;;
66169;SDS011;66757;44.024;20.456;2023-02-13T09:23:44;39.28;;;24.77;;
66169;SDS011;66757;44.024;20.456;2023-02-13T09:26:10;34.83;;;20.52;;
66169;SDS011;66757;44.024;20.456;2023-02-13T09:28:35;36.95;;;22.35;;
66169;SDS011;66757;44.024;20.456;2023-02-13T09:31:05;36.58;;;22.15;;
66169;SDS011;66757;44.024;20.456;2023-02-13T09:33:30;31.95;;;20.95;;
66169;SDS011;66757;44.024;20.456;2023-02-13T09:35:56;29.10;;;18.92;;
66169;SDS011;66757;44.024;20.456;2023-02-13T09:38:21;28.85;;;18.15;;
66169;SDS011;66757;44.024;20.456;2023-02-13T09:40:50;33.30;;;20.55;;
66169;SDS011;66757;44.024;20.456;2023-02-13T09:45:57;29.80;;;19.10;;
66169;SDS011;66757;44.024;20.456;2023-02-13T09:48:28;26.20;;;16.95;;
66169;SDS011;66757;44.024;20.456;2023-02-13T09:50:54;33.97;;;20.40;;
66169;SDS011;66757;44.024;20.456;2023-02-13T09:53:20;28.02;;;17.90;;
66169;SDS011;66757;44.024;20.456;2023-02-13T10:01:22;27.77;;;16.30;;
66169;SDS011;66757;44.024;20.456;2023-02-13T10:03:59;31.13;;;18.77;;
66169;SDS011;66757;44.024;20.456;2023-02-13T10:06:31;29.27;;;17.77;;
66169;SDS011;66757;44.024;20.456;2023-02-13T10:09:05;34.70;;;18.83;;
66169;SDS011;66757;44.024;20.456;2023-02-13T10:11:59;46.53;;;25.20;;
66169;SDS011;66757;44.024;20.456;2023-02-13T10:17:08;30.27;;;16.38;;
66169;SDS011;66757;44.024;20.456;2023-02-13T10:24:32;26.80;;;17.10;;
66169;SDS011;66757;44.024;20.456;2023-02-13T10:26:58;29.33;;;18.73;;
66169;SDS011;66757;44.024;20.456;2023-02-13T10:29:30;26.55;;;16.92;;
66169;SDS011;66757;44.024;20.456;2023-02-13T10:32:17;29.52;;;17.50;;
66169;SDS011;66757;44.024;20.456;2023-02-13T10:34:46;74.68;;;41.83;;
66169;SDS011;66757;44.024;20.456;2023-02-13T10:37:18;25.90;;;16.27;;
66169;SDS011;66757;44.024;20.456;2023-02-13T10:39:45;25.33;;;15.45;;
66169;SDS011;66757;44.024;20.456;2023-02-13T10:44:48;29.52;;;17.52;;
66169;SDS011;66757;44.024;20.456;2023-02-13T10:49:59;20.30;;;13.82;;
66169;SDS011;66757;44.024;20.456;2023-02-13T11:02:38;30.33;;;16.65;;
66169;SDS011;66757;44.024;20.456;2023-02-13T11:05:16;53.45;;;24.15;;
66169;SDS011;66757;44.024;20.456;2023-02-13T11:07:43;29.25;;;14.23;;
66169;SDS011;66757;44.024;20.456;2023-02-13T11:10:19;15.45;;;9.75;;
66169;SDS011;66757;44.024;20.456;2023-02-13T11:12:44;20.75;;;10.80;;
66169;SDS011;66757;44.024;20.456;2023-02-13T11:15:24;18.02;;;10.95;;
66169;SDS011;66757;44.024;20.456;2023-02-13T11:17:50;17.85;;;9.15;;
66169;SDS011;66757;44.024;20.456;2023-02-13T11:20:34;16.17;;;10.73;;
66169;SDS011;66757;44.024;20.456;2023-02-13T11:25:58;28.75;;;12.90;;
66169;SDS011;66757;44.024;20.456;2023-02-13T11:28:24;21.85;;;13.38;;
66169;SDS011;66757;44.024;20.456;2023-02-13T11:30:50;34.03;;;21.77;;
66169;SDS011;66757;44.024;20.456;2023-02-13T11:35:41;14.48;;;7.50;;
66169;SDS011;66757;44.024;20.456;2023-02-13T11:38:27;17.90;;;10.55;;
66169;SDS011;66757;44.024;20.456;2023-02-13T11:41:02;18.75;;;11.82;;
66169;SDS011;66757;44.024;20.456;2023-02-13T11:43:30;21.55;;;11.85;;
66169;SDS011;66757;44.024;20.456;2023-02-13T11:46:08;24.70;;;13.20;;
66169;SDS011;66757;44.024;20.456;2023-02-13T11:48:35;25.85;;;13.20;;
66169;SDS011;66757;44.024;20.456;2023-02-13T11:51:01;28.50;;;13.70;;
66169;SDS011;66757;44.024;20.456;2023-02-13T11:53:34;21.23;;;16.52;;
66169;SDS011;66757;44.024;20.456;2023-02-13T11:59:01;27.67;;;18.20;;
66169;SDS011;66757;44.024;20.456;2023-02-13T12:01:27;17.50;;;14.27;;
66169;SDS011;66757;44.024;20.456;2023-02-13T12:04:00;9.15;;;6.05;;
66169;SDS011;66757;44.024;20.456;2023-02-13T12:06:26;13.65;;;7.55;;
66169;SDS011;66757;44.024;20.456;2023-02-13T12:08:52;15.93;;;9.02;;
66169;SDS011;66757;44.024;20.456;2023-02-13T12:11:22;6.97;;;5.25;;
66169;SDS011;66757;44.024;20.456;2023-02-13T12:13:48;10.35;;;7.20;;
66169;SDS011;66757;44.024;20.456;2023-02-13T12:18:48;19.55;;;14.15;;
66169;SDS011;66757;44.024;20.456;2023-02-13T12:21:36;10.00;;;7.65;;
66169;SDS011;66757;44.024;20.456;2023-02-13T12:26:43;19.02;;;13.45;;
66169;SDS011;66757;44.024;20.456;2023-02-13T12:39:24;17.70;;;10.27;;
66169;SDS011;66757;44.024;20.456;2023-02-13T12:44:22;14.20;;;8.80;;
66169;SDS011;66757;44.024;20.456;2023-02-13T12:54:48;8.27;;;5.90;;
66169;SDS011;66757;44.024;20.456;2023-02-13T12:57:22;13.65;;;9.73;;
66169;SDS011;66757;44.024;20.456;2023-02-13T13:07:40;9.50;;;6.50;;
66169;SDS011;66757;44.024;20.456;2023-02-13T13:12:45;21.70;;;10.18;;
66169;SDS011;66757;44.024;20.456;2023-02-13T13:15:17;15.15;;;9.30;;
66169;SDS011;66757;44.024;20.456;2023-02-13T13:17:52;13.48;;;8.23;;
66169;SDS011;66757;44.024;20.456;2023-02-13T13:23:14;15.70;;;10.95;;
66169;SDS011;66757;44.024;20.456;2023-02-13T13:30:52;12.73;;;8.68;;
66169;SDS011;66757;44.024;20.456;2023-02-13T13:33:19;19.00;;;12.35;;
66169;SDS011;66757;44.024;20.456;2023-02-13T13:41:17;21.50;;;13.43;;
66169;SDS011;66757;44.024;20.456;2023-02-13T13:46:34;30.23;;;16.95;;
66169;SDS011;66757;44.024;20.456;2023-02-13T13:49:13;22.58;;;14.75;;
66169;SDS011;66757;44.024;20.456;2023-02-13T13:51:40;22.25;;;14.48;;
66169;SDS011;66757;44.024;20.456;2023-02-13T14:05:14;15.13;;;8.25;;
66169;SDS011;66757;44.024;20.456;2023-02-13T14:07:36;31.75;;;16.88;;
66169;SDS011;66757;44.024;20.456;2023-02-13T14:10:02;34.67;;;23.58;;
66169;SDS011;66757;44.024;20.456;2023-02-13T14:14:55;31.48;;;19.02;;
66169;SDS011;66757;44.024;20.456;2023-02-13T14:20:41;16.38;;;10.98;;
66169;SDS011;66757;44.024;20.456;2023-02-13T14:25:46;22.38;;;13.60;;
66169;SDS011;66757;44.024;20.456;2023-02-13T14:28:22;16.80;;;9.75;;
66169;SDS011;66757;44.024;20.456;2023-02-13T14:30:48;23.67;;;13.75;;
66169;SDS011;66757;44.024;20.456;2023-02-13T14:33:33;26.35;;;16.15;;
66169;SDS011;66757;44.024;20.456;2023-02-13T14:36:22;21.33;;;14.20;;
66169;SDS011;66757;44.024;20.456;2023-02-13T14:38:57;22.42;;;15.23;;
66169;SDS011;66757;44.024;20.456;2023-02-13T14:44:10;32.15;;;20.88;;
66169;SDS011;66757;44.024;20.456;2023-02-13T14:46:40;37.63;;;21.55;;
66169;SDS011;66757;44.024;20.456;2023-02-13T14:49:09;22.77;;;16.38;;
66169;SDS011;66757;44.024;20.456;2023-02-13T14:51:43;40.60;;;22.02;;
66169;SDS011;66757;44.024;20.456;2023-02-13T14:56:46;33.33;;;19.90;;
66169;SDS011;66757;44.024;20.456;2023-02-13T14:59:22;25.80;;;16.00;;
66169;SDS011;66757;44.024;20.456;2023-02-13T15:01:52;43.38;;;26.67;;
66169;SDS011;66757;44.024;20.456;2023-02-13T15:04:39;46.13;;;24.17;;
66169;SDS011;66757;44.024;20.456;2023-02-13T15:07:05;42.50;;;24.92;;
66169;SDS011;66757;44.024;20.456;2023-02-13T15:09:37;35.72;;;24.02;;
66169;SDS011;66757;44.024;20.456;2023-02-13T15:12:04;37.55;;;23.98;;
66169;SDS011;66757;44.024;20.456;2023-02-13T15:14:47;39.92;;;23.60;;
66169;SDS011;66757;44.024;20.456;2023-02-13T15:17:20;45.03;;;26.30;;
66169;SDS011;66757;44.024;20.456;2023-02-13T15:19:47;65.80;;;41.33;;
66169;SDS011;66757;44.024;20.456;2023-02-13T15:22:28;55.67;;;34.30;;
66169;SDS011;66757;44.024;20.456;2023-02-13T15:24:54;60.08;;;35.55;;
66169;SDS011;66757;44.024;20.456;2023-02-13T15:27:24;49.75;;;30.33;;
66169;SDS011;66757;44.024;20.456;2023-02-13T15:29:53;61.58;;;30.15;;
66169;SDS011;66757;44.024;20.456;2023-02-13T15:32:19;42.83;;;25.88;;
66169;SDS011;66757;44.024;20.456;2023-02-13T15:34:45;45.40;;;29.10;;
66169;SDS011;66757;44.024;20.456;2023-02-13T15:37:21;52.25;;;33.58;;
66169;SDS011;66757;44.024;20.456;2023-02-13T15:39:47;48.75;;;33.03;;
66169;SDS011;66757;44.024;20.456;2023-02-13T15:42:12;64.47;;;39.08;;
66169;SDS011;66757;44.024;20.456;2023-02-13T15:44:37;81.68;;;48.50;;
66169;SDS011;66757;44.024;20.456;2023-02-13T15:47:04;78.63;;;48.42;;
66169;SDS011;66757;44.024;20.456;2023-02-13T15:49:32;103.60;;;58.50;;
66169;SDS011;66757;44.024;20.456;2023-02-13T15:52:02;125.80;;;76.10;;
66169;SDS011;66757;44.024;20.456;2023-02-13T15:54:30;181.15;;;105.03;;
66169;SDS011;66757;44.024;20.456;2023-02-13T15:56:58;149.32;;;92.85;;
66169;SDS011;66757;44.024;20.456;2023-02-13T15:59:24;240.57;;;144.68;;
66169;SDS011;66757;44.024;20.456;2023-02-13T16:01:51;255.98;;;156.93;;
66169;SDS011;66757;44.024;20.456;2023-02-13T16:04:17;247.30;;;147.27;;
66169;SDS011;66757;44.024;20.456;2023-02-13T16:06:44;187.05;;;116.03;;
66169;SDS011;66757;44.024;20.456;2023-02-13T16:12:02;138.85;;;87.10;;
66169;SDS011;66757;44.024;20.456;2023-02-13T16:14:28;119.00;;;74.50;;
66169;SDS011;66757;44.024;20.456;2023-02-13T16:17:00;111.32;;;68.50;;
66169;SDS011;66757;44.024;20.456;2023-02-13T16:21:57;112.00;;;67.88;;
66169;SDS011;66757;44.024;20.456;2023-02-13T16:24:24;105.90;;;65.00;;
66169;SDS011;66757;44.024;20.456;2023-02-13T16:26:50;112.93;;;68.60;;
66169;SDS011;66757;44.024;20.456;2023-02-13T16:29:20;143.18;;;84.45;;
66169;SDS011;66757;44.024;20.456;2023-02-13T16:31:46;154.23;;;90.75;;